الصفحة الرئيسية
METAR-TAF:

METAR-TAF

مطار :

برنو, التشيك

دائرة عرض: 49-09N, خط طول: 016-42E, ارتفاع: 241 متر

مراقبة الطقس الحالي

تاريخ ووقت الإصدار 31 دقيقة قبل الساعة 01:30UTC
ريح 4 عقدة من الغرب/الشمال الغربي
درجة الحرارة 16°درجة مئوية
الرطوبة 82%
ضغط 1021 hPa
الرؤية 10 كم أو أكثر
الغيوم لا تقل 1500 م ولا وجود لمزنة ركامية السحاب الأسود

METAR: LKTB 180130Z 29004KT CAVOK 16/13 Q1021 NOSIG

زمن: 04:01 (02:01 UTC)

توقعات

تاريخ ووقت الإصدار 3ساعات و 1 دقيقة قبل الساعة 23:00UTC
التوقعات صالحة من18 الساعة 00 UTC إلى 19 الساعة 00 UTC
ريح 6 عقدة من الشمال/الشمال الشرقي
الرؤية 10 كم أو أكثر
الغيوم لا تقل 1500 م ولا وجود لمزنة ركامية السحاب الأسود
أصبح
من 18 الساعة 06 UTC إلى 18 الساعة 08 UTC
ريح 10 عقدة من الشرق
أصبح
من 18 الساعة 16 UTC إلى 18 الساعة 18 UTC
ريح 6 عقدة من الشمال/الشمال الشرقي

TAF: LKTB 172300Z 1800/1900 02006KT CAVOK BECMG 1806/1808 08010KT BECMG 1816/1818 02006KT

أرصاد الطقس والتوقعات من أكثر من 4000 مطار (تقارير الطقس للمطار METAR والتنبؤ بالطقس بالمطارTAF).

المحطات المتاحة هي النقط الصفراء والحمراء على الخريطة.

حرك المؤشر فوق النقطة لمعرفة اسم المحطة.

ثم انقر لمعرفة أرصاد وتوقعات الطقس.

لتغيير الخارطة: اضغط على الأزرار الخضراء مع رمز الصليب الأسود للتكبير. على الزر الأخضر مع شرطة للتصغير، أو على الأسهم الخضراء للخرائط المجاورة.


METAR-TAF: